Bookmark and Share
Track history (hours):
 

Blue Bay

Last reported at 2014-Apr-16 00:14 UTC. Time now 2014-Apr-16 05:28 UTC.
Position N 50°11' W 000°44'.

Length 89 m; draft 5.3 m.

Type: Cargo ship. MMSI: 304519000.

NotesDate/timePositionNaut miles runAvg speedWind from/ knotsBaromVisibWave heightAir tempDewpointWater temp
2014-Apr-16 00:14N 50°11' W 000°44'6 8.5
2014-Apr-15 23:33N 50°10' W 000°53'10 9.7
2014-Apr-15 22:33N 50°07' W 001°07'  
2014-Apr-12 00:18N 38°31' W 009°48'21 9.3
2014-Apr-11 22:04N 38°10' W 009°42'5 9.4
2014-Apr-11 21:33N 38°06' W 009°40'10 9.7
2014-Apr-11 20:33N 37°56' W 009°38'10 9.8
2014-Apr-11 19:33N 37°47' W 009°35'10 9.6
2014-Apr-11 18:32N 37°37' W 009°32'11 9.5
2014-Apr-11 17:20N 37°26' W 009°29'18 9.5
2014-Apr-11 15:28N 37°09' W 009°24'12 9.4
2014-Apr-11 14:14N 36°57' W 009°20'11 9.5
2014-Apr-11 13:08N 36°48' W 009°14'19 9.6
2014-Apr-11 11:07N 36°42' W 008°51'610.0
2014-Apr-11 10:33N 36°42' W 008°44'1010.0
2014-Apr-11 09:33N 36°42' W 008°32'10 9.9
2014-Apr-11 08:33N 36°43' W 008°19'10 9.9
2014-Apr-11 07:33N 36°43' W 008°07'1010.0
2014-Apr-11 06:34N 36°44' W 007°54'5610.2
2014-Apr-11 01:06N 36°46' W 006°45'  

Dump ship's entire track history

sailing weather and tide predictions

Blue Bay — V2CE6 — position and weather